Time;durP1;ratioP1;P1;durP2;ratioP2;P2;SDS_P1;SDS_P2;PMS_P1;PMS_P2;Temp;Humidity;BMP_temperature;BMP_pressure;BME280_temperature;BME280_humidity;BME280_pressure;Samples;Min_cycle;Max_cycle;Signal;HPM_P1;HPM_P2
2021/03/07 00:00:10;;;;;;;7.05;4.15;;;;;;;;;;5073545;28;20201;-64
2021/03/07 00:02:37;;;;;;;8.75;4.90;;;;;;;;;;5073339;28;20729;-64
2021/03/07 00:05:04;;;;;;;10.70;5.65;;;;;;;;;;5073129;28;20224;-65
2021/03/07 00:07:31;;;;;;;5.55;5.05;;;;;;;;;;5072925;28;20208;-64
2021/03/07 00:09:57;;;;;;;6.93;4.78;;;;;;;;;;5073529;28;20205;-64
2021/03/07 00:12:26;;;;;;;6.38;5.55;;;;;;;;;;5073487;28;20204;-65
2021/03/07 00:14:53;;;;;;;8.25;5.20;;;;;;;;;;5073228;28;20228;-65
2021/03/07 00:17:19;;;;;;;6.68;6.05;;;;;;;;;;5073168;28;20262;-64
2021/03/07 00:19:46;;;;;;;7.57;5.95;;;;;;;;;;5073284;28;20201;-64
2021/03/07 00:22:13;;;;;;;6.20;5.32;;;;;;;;;;5073069;28;20676;-64
2021/03/07 00:24:40;;;;;;;6.50;5.30;;;;;;;;;;5076960;28;20227;-65
2021/03/07 00:27:06;;;;;;;5.95;5.45;;;;;;;;;;5077400;28;20201;-64
2021/03/07 00:29:34;;;;;;;6.18;5.60;;;;;;;;;;5077168;28;20345;-64
2021/03/07 00:32:01;;;;;;;11.45;5.15;;;;;;;;;;5079157;28;20205;-64
2021/03/07 00:34:27;;;;;;;5.93;5.00;;;;;;;;;;5091526;28;20217;-64
2021/03/07 00:36:54;;;;;;;7.53;6.30;;;;;;;;;;5087941;28;20197;-65
2021/03/07 00:39:21;;;;;;;7.53;6.10;;;;;;;;;;5086338;28;20197;-65
2021/03/07 00:41:48;;;;;;;8.13;6.05;;;;;;;;;;5082525;28;20205;-65
2021/03/07 00:44:15;;;;;;;9.02;6.95;;;;;;;;;;5079187;28;20220;-63
2021/03/07 00:46:43;;;;;;;14.55;5.93;;;;;;;;;;5079777;28;20201;-62
2021/03/07 00:49:10;;;;;;;8.93;7.18;;;;;;;;;;5077696;28;20225;-62
2021/03/07 00:51:37;;;;;;;9.90;6.97;;;;;;;;;;5077251;28;20212;-62
2021/03/07 00:54:04;;;;;;;7.70;6.60;;;;;;;;;;5077199;28;20599;-62
2021/03/07 00:56:31;;;;;;;7.50;6.70;;;;;;;;;;5076837;28;20208;-62
2021/03/07 00:58:58;;;;;;;12.95;7.15;;;;;;;;;;5076539;28;20558;-61
2021/03/07 01:01:25;;;;;;;7.72;6.47;;;;;;;;;;5076481;28;20673;-62
2021/03/07 01:03:52;;;;;;;8.38;6.88;;;;;;;;;;5076426;28;20255;-61
2021/03/07 01:06:19;;;;;;;8.27;6.55;;;;;;;;;;5078294;28;20591;-62
2021/03/07 01:08:46;;;;;;;6.93;5.70;;;;;;;;;;5079319;28;20221;-61
2021/03/07 01:11:13;;;;;;;8.50;6.75;;;;;;;;;;5079900;28;20201;-62
2021/03/07 01:13:39;;;;;;;8.88;6.30;;;;;;;;;;5077300;28;20287;-62
2021/03/07 01:16:06;;;;;;;7.38;6.68;;;;;;;;;;5077100;28;20200;-62
2021/03/07 01:18:33;;;;;;;7.57;6.63;;;;;;;;;;5076698;28;20201;-63
2021/03/07 01:21:00;;;;;;;6.47;5.75;;;;;;;;;;5076639;28;20545;-62
2021/03/07 01:23:28;;;;;;;8.32;6.05;;;;;;;;;;5076586;28;20221;-61
2021/03/07 01:25:54;;;;;;;7.38;6.07;;;;;;;;;;5076427;28;20201;-62
2021/03/07 01:28:21;;;;;;;8.82;5.88;;;;;;;;;;5076157;28;20213;-61
2021/03/07 01:30:48;;;;;;;10.07;7.28;;;;;;;;;;5076341;28;20212;-62
2021/03/07 01:33:15;;;;;;;6.15;5.55;;;;;;;;;;5076335;28;20225;-62
2021/03/07 01:35:42;;;;;;;7.40;5.70;;;;;;;;;;5075625;28;20205;-61
2021/03/07 01:38:09;;;;;;;7.30;5.82;;;;;;;;;;5075934;28;20201;-61
2021/03/07 01:40:38;;;;;;;6.18;5.68;;;;;;;;;;5076017;28;20197;-61
2021/03/07 01:43:05;;;;;;;10.32;6.47;;;;;;;;;;5075736;28;20682;-62
2021/03/07 01:45:33;;;;;;;7.80;5.90;;;;;;;;;;5079705;28;20203;-62
2021/03/07 01:48:00;;;;;;;10.32;5.60;;;;;;;;;;5076496;28;20213;-62
2021/03/07 01:50:28;;;;;;;9.52;5.20;;;;;;;;;;5077164;28;20246;-61
2021/03/07 01:52:54;;;;;;;7.57;5.70;;;;;;;;;;5077608;28;20196;-61
2021/03/07 01:55:25;;;;;;;5.45;4.82;;;;;;;;;;5077267;28;20197;-62
2021/03/07 01:57:58;;;;;;;5.60;5.10;;;;;;;;;;5077867;28;20197;-61
2021/03/07 02:00:25;;;;;;;5.95;4.93;;;;;;;;;;5077325;28;20185;-61
2021/03/07 02:02:51;;;;;;;8.35;5.95;;;;;;;;;;5076608;28;20197;-63
2021/03/07 02:05:20;;;;;;;6.68;5.93;;;;;;;;;;5077069;28;20714;-61
2021/03/07 02:07:48;;;;;;;5.90;5.30;;;;;;;;;;5075638;28;20201;-62
2021/03/07 02:10:17;;;;;;;5.63;4.75;;;;;;;;;;5075764;28;20223;-63
2021/03/07 02:12:45;;;;;;;9.18;4.90;;;;;;;;;;5075202;28;20254;-62
2021/03/07 02:15:12;;;;;;;5.60;4.35;;;;;;;;;;5075662;28;20228;-61
2021/03/07 02:17:41;;;;;;;5.22;4.20;;;;;;;;;;5075492;28;20205;-62
2021/03/07 02:20:10;;;;;;;5.43;4.05;;;;;;;;;;5075371;28;20205;-61
2021/03/07 02:22:37;;;;;;;5.75;4.25;;;;;;;;;;5075320;28;20292;-61
2021/03/07 02:25:07;;;;;;;5.88;4.30;;;;;;;;;;5075294;28;20282;-62
2021/03/07 02:27:34;;;;;;;6.43;3.60;;;;;;;;;;5075381;28;20217;-61
2021/03/07 02:30:01;;;;;;;8.10;3.50;;;;;;;;;;5075473;28;20622;-62
2021/03/07 02:32:29;;;;;;;6.03;3.13;;;;;;;;;;5075010;28;20578;-61
2021/03/07 02:34:58;;;;;;;4.53;2.90;;;;;;;;;;5074883;28;20737;-60
2021/03/07 02:37:26;;;;;;;3.10;2.70;;;;;;;;;;5075154;28;20579;-61
2021/03/07 02:39:53;;;;;;;4.82;2.70;;;;;;;;;;5075030;28;20551;-62
2021/03/07 02:42:22;;;;;;;8.40;3.10;;;;;;;;;;5074847;28;20201;-61
2021/03/07 02:44:53;;;;;;;2.53;2.33;;;;;;;;;;5074431;28;20572;-62
2021/03/07 02:47:22;;;;;;;4.70;2.70;;;;;;;;;;5073801;28;20189;-61
2021/03/07 02:49:48;;;;;;;3.53;2.97;;;;;;;;;;5074647;28;20299;-61
2021/03/07 02:52:17;;;;;;;4.15;2.67;;;;;;;;;;5075752;28;20205;-62
2021/03/07 02:54:44;;;;;;;3.92;2.65;;;;;;;;;;5077548;28;20348;-62
2021/03/07 02:57:12;;;;;;;3.20;2.70;;;;;;;;;;5077565;28;20580;-62
2021/03/07 02:59:40;;;;;;;5.63;3.00;;;;;;;;;;5076156;28;20577;-62
2021/03/07 03:02:07;;;;;;;4.97;2.58;;;;;;;;;;5076857;28;20201;-61
2021/03/07 03:04:35;;;;;;;5.55;3.10;;;;;;;;;;5080487;28;20232;-61
2021/03/07 03:07:02;;;;;;;6.65;3.10;;;;;;;;;;5084426;28;20244;-62
2021/03/07 03:09:30;;;;;;;6.10;3.30;;;;;;;;;;5079387;28;20701;-63
2021/03/07 03:11:58;;;;;;;4.68;3.33;;;;;;;;;;5077756;28;20201;-61
2021/03/07 03:14:25;;;;;;;3.80;3.25;;;;;;;;;;5077353;28;20602;-63
2021/03/07 03:16:54;;;;;;;5.63;4.03;;;;;;;;;;5078450;28;20208;-61
2021/03/07 03:19:21;;;;;;;5.70;4.10;;;;;;;;;;5078712;28;20204;-61
2021/03/07 03:21:48;;;;;;;5.30;3.45;;;;;;;;;;5076292;28;20692;-62
2021/03/07 03:24:15;;;;;;;5.60;3.97;;;;;;;;;;5075678;28;20247;-62
2021/03/07 03:26:42;;;;;;;4.05;3.30;;;;;;;;;;5076655;28;20204;-62
2021/03/07 03:29:09;;;;;;;3.30;3.00;;;;;;;;;;5077850;28;20217;-62
2021/03/07 03:31:36;;;;;;;3.55;3.25;;;;;;;;;;5078101;28;20201;-62
2021/03/07 03:34:05;;;;;;;4.20;2.95;;;;;;;;;;5077935;28;20221;-62
2021/03/07 03:36:32;;;;;;;6.13;3.35;;;;;;;;;;5079545;28;20197;-60
2021/03/07 03:39:01;;;;;;;6.63;3.60;;;;;;;;;;5078821;28;20201;-62
2021/03/07 03:41:30;;;;;;;4.15;3.30;;;;;;;;;;5077380;28;20212;-62
2021/03/07 03:43:58;;;;;;;4.53;2.97;;;;;;;;;;5077629;28;20344;-62
2021/03/07 03:46:25;;;;;;;4.03;3.08;;;;;;;;;;5074756;28;20220;-62
2021/03/07 03:48:53;;;;;;;4.00;3.50;;;;;;;;;;5075912;28;20221;-61
2021/03/07 03:51:22;;;;;;;5.03;2.75;;;;;;;;;;5076413;28;20556;-62
2021/03/07 03:53:49;;;;;;;4.55;4.00;;;;;;;;;;5074529;28;20232;-63
2021/03/07 03:56:17;;;;;;;5.18;3.85;;;;;;;;;;5074883;28;20205;-62
2021/03/07 03:58:45;;;;;;;4.85;3.05;;;;;;;;;;5074762;28;20624;-62
2021/03/07 04:01:12;;;;;;;4.43;3.40;;;;;;;;;;5075754;28;20207;-62
2021/03/07 04:03:40;;;;;;;5.00;3.20;;;;;;;;;;5075644;28;20642;-62
2021/03/07 04:07:49;;;;;;;6.18;3.38;;;;;;;;;;5116331;27;20570;-63
2021/03/07 04:10:17;;;;;;;6.57;3.80;;;;;;;;;;5113282;28;20203;-62
2021/03/07 04:12:45;;;;;;;5.45;3.67;;;;;;;;;;5113625;28;20572;-62
2021/03/07 04:15:12;;;;;;;7.10;4.30;;;;;;;;;;5115838;28;20219;-61
2021/03/07 04:17:40;;;;;;;4.00;3.28;;;;;;;;;;5114190;28;20203;-62
2021/03/07 04:20:07;;;;;;;4.38;3.13;;;;;;;;;;5113227;28;20608;-61
2021/03/07 04:22:34;;;;;;;7.30;3.30;;;;;;;;;;5113245;28;20204;-62
2021/03/07 04:25:02;;;;;;;6.75;3.35;;;;;;;;;;5113095;28;20227;-62
2021/03/07 04:27:29;;;;;;;4.20;3.15;;;;;;;;;;5112278;28;20215;-63
2021/03/07 04:29:56;;;;;;;3.78;3.30;;;;;;;;;;5112659;28;20660;-61
2021/03/07 04:32:23;;;;;;;4.38;3.38;;;;;;;;;;5112021;28;20282;-62
2021/03/07 04:34:50;;;;;;;5.10;3.70;;;;;;;;;;5111622;28;20227;-61
2021/03/07 04:37:17;;;;;;;4.30;3.10;;;;;;;;;;5111598;28;20247;-62
2021/03/07 04:39:44;;;;;;;5.63;3.40;;;;;;;;;;5111165;28;20199;-62
2021/03/07 04:42:12;;;;;;;3.60;2.72;;;;;;;;;;5110924;28;20203;-62
2021/03/07 04:44:38;;;;;;;7.00;3.90;;;;;;;;;;5110866;28;20219;-62
2021/03/07 04:47:05;;;;;;;3.67;3.38;;;;;;;;;;5110566;28;20809;-62
2021/03/07 04:49:32;;;;;;;6.03;3.70;;;;;;;;;;5111178;28;20196;-62
2021/03/07 04:51:59;;;;;;;3.63;3.00;;;;;;;;;;5110996;28;20199;-62
2021/03/07 04:54:25;;;;;;;4.60;3.17;;;;;;;;;;5110602;28;20231;-61
2021/03/07 04:56:52;;;;;;;4.00;3.13;;;;;;;;;;5111038;28;20203;-61
2021/03/07 04:59:20;;;;;;;4.55;3.63;;;;;;;;;;5110736;28;20200;-62
2021/03/07 05:01:47;;;;;;;3.53;2.80;;;;;;;;;;5110620;28;20251;-61
2021/03/07 05:04:13;;;;;;;4.93;3.40;;;;;;;;;;5110474;28;20277;-61
2021/03/07 05:06:41;;;;;;;6.85;3.45;;;;;;;;;;5110289;28;20637;-61
2021/03/07 05:09:09;;;;;;;6.22;4.35;;;;;;;;;;5110406;28;20230;-61
2021/03/07 05:11:36;;;;;;;5.32;3.10;;;;;;;;;;5110624;28;20253;-60
2021/03/07 05:14:03;;;;;;;4.00;3.60;;;;;;;;;;5110521;28;20586;-62
2021/03/07 05:16:31;;;;;;;9.35;3.70;;;;;;;;;;5110341;28;20728;-61
2021/03/07 05:18:57;;;;;;;3.72;3.33;;;;;;;;;;5100203;28;20293;-62
2021/03/07 05:21:25;;;;;;;5.22;3.80;;;;;;;;;;5098295;28;20208;-62
2021/03/07 05:23:52;;;;;;;7.38;3.97;;;;;;;;;;5098388;28;20220;-62
2021/03/07 05:26:18;;;;;;;5.22;3.88;;;;;;;;;;5099435;28;20238;-62
2021/03/07 05:28:45;;;;;;;7.70;4.00;;;;;;;;;;5098144;28;20249;-62
2021/03/07 05:31:12;;;;;;;6.82;4.03;;;;;;;;;;5097742;28;20204;-62
2021/03/07 05:33:40;;;;;;;6.82;3.88;;;;;;;;;;5096859;28;20594;-60
2021/03/07 05:36:07;;;;;;;10.18;4.15;;;;;;;;;;5097139;28;20201;-62
2021/03/07 05:38:34;;;;;;;5.43;3.50;;;;;;;;;;5097172;28;20223;-60
2021/03/07 05:41:01;;;;;;;3.92;3.38;;;;;;;;;;5097565;28;20231;-62
2021/03/07 05:43:28;;;;;;;8.63;3.90;;;;;;;;;;5100317;28;20227;-61
2021/03/07 05:45:54;;;;;;;6.00;4.50;;;;;;;;;;5101876;28;20227;-61
2021/03/07 05:48:21;;;;;;;6.10;4.00;;;;;;;;;;5097133;28;20683;-61
2021/03/07 05:50:49;;;;;;;5.75;4.22;;;;;;;;;;5097188;28;20204;-61
2021/03/07 05:53:16;;;;;;;5.75;4.78;;;;;;;;;;5097524;28;20221;-60
2021/03/07 05:55:43;;;;;;;5.55;4.50;;;;;;;;;;5097378;28;20197;-60
2021/03/07 05:58:10;;;;;;;5.22;4.28;;;;;;;;;;5096653;28;20200;-62
2021/03/07 06:00:37;;;;;;;6.60;4.68;;;;;;;;;;5096301;28;20200;-61
2021/03/07 06:03:04;;;;;;;9.32;4.78;;;;;;;;;;5096051;28;20556;-62
2021/03/07 06:05:31;;;;;;;5.45;4.15;;;;;;;;;;5095709;28;20211;-61
2021/03/07 06:07:59;;;;;;;5.82;4.25;;;;;;;;;;5095941;28;20188;-61
2021/03/07 06:10:27;;;;;;;5.38;3.90;;;;;;;;;;5095230;28;20196;-60
2021/03/07 06:12:58;;;;;;;5.28;3.53;;;;;;;;;;5095347;28;20204;-61
2021/03/07 06:15:25;;;;;;;11.35;4.63;;;;;;;;;;5095405;28;20204;-62
2021/03/07 06:17:52;;;;;;;5.63;4.03;;;;;;;;;;5095216;28;20201;-62
2021/03/07 06:20:19;;;;;;;7.95;4.43;;;;;;;;;;5095524;28;20208;-60
2021/03/07 06:22:54;;;;;;;7.28;4.25;;;;;;;;;;5095357;28;20565;-60
2021/03/07 06:25:21;;;;;;;6.18;4.40;;;;;;;;;;5095409;28;20253;-61
2021/03/07 06:27:48;;;;;;;7.65;4.43;;;;;;;;;;5094982;28;20700;-60
2021/03/07 06:30:17;;;;;;;4.40;3.78;;;;;;;;;;5095163;28;20262;-61
2021/03/07 06:32:44;;;;;;;6.15;4.45;;;;;;;;;;5099770;28;20204;-61
2021/03/07 06:35:13;;;;;;;5.13;3.72;;;;;;;;;;5107184;28;20256;-62
2021/03/07 06:37:54;;;;;;;5.15;4.03;;;;;;;;;;5108476;28;20192;-62
2021/03/07 06:40:26;;;;;;;6.25;3.90;;;;;;;;;;5097475;28;20633;-61
2021/03/07 06:42:54;;;;;;;6.25;4.32;;;;;;;;;;5097238;28;20559;-61
2021/03/07 06:45:20;;;;;;;5.82;4.47;;;;;;;;;;5096400;28;20200;-62
2021/03/07 06:47:57;;;;;;;6.57;4.15;;;;;;;;;;5096583;28;20220;-60
2021/03/07 06:50:24;;;;;;;6.78;4.30;;;;;;;;;;5096717;28;20266;-61
2021/03/07 06:52:52;;;;;;;10.52;5.38;;;;;;;;;;5095406;28;20265;-62
2021/03/07 06:55:19;;;;;;;7.45;4.15;;;;;;;;;;5096039;28;20213;-62
2021/03/07 06:57:47;;;;;;;5.75;3.78;;;;;;;;;;5097029;28;20200;-61
2021/03/07 07:00:14;;;;;;;5.95;4.47;;;;;;;;;;5097636;28;20196;-62
2021/03/07 07:02:41;;;;;;;7.07;4.05;;;;;;;;;;5098426;28;20211;-62
2021/03/07 07:05:09;;;;;;;7.45;4.60;;;;;;;;;;5096180;28;20220;-62
2021/03/07 07:07:47;;;;;;;5.20;4.07;;;;;;;;;;5094338;28;20231;-61
2021/03/07 07:10:15;;;;;;;6.05;3.22;;;;;;;;;;5094508;28;20264;-61
2021/03/07 07:12:42;;;;;;;5.57;4.10;;;;;;;;;;5094514;28;20200;-62
2021/03/07 07:15:11;;;;;;;6.13;4.10;;;;;;;;;;5094330;28;20245;-62
2021/03/07 07:17:38;;;;;;;8.57;4.10;;;;;;;;;;5094381;28;20207;-60
2021/03/07 07:20:05;;;;;;;5.13;3.70;;;;;;;;;;5094444;28;20278;-61
2021/03/07 07:22:32;;;;;;;4.80;3.88;;;;;;;;;;5100946;28;20203;-63
2021/03/07 07:25:00;;;;;;;5.43;3.90;;;;;;;;;;5102580;28;20704;-59
2021/03/07 07:27:26;;;;;;;8.23;4.28;;;;;;;;;;5097121;28;20220;-62
2021/03/07 07:29:53;;;;;;;10.25;3.95;;;;;;;;;;5096288;28;20211;-62
2021/03/07 07:32:27;;;;;;;4.95;3.50;;;;;;;;;;5094694;28;20200;-62
2021/03/07 07:34:57;;;;;;;4.80;3.75;;;;;;;;;;5094115;28;20219;-61
2021/03/07 07:37:25;;;;;;;5.85;4.13;;;;;;;;;;5093722;28;20201;-61
2021/03/07 07:39:53;;;;;;;5.40;4.25;;;;;;;;;;5093886;28;20249;-61
2021/03/07 07:42:21;;;;;;;6.57;3.90;;;;;;;;;;5093948;28;20196;-60
2021/03/07 07:44:48;;;;;;;7.15;3.53;;;;;;;;;;5094507;28;20220;-61
2021/03/07 07:47:15;;;;;;;6.45;3.55;;;;;;;;;;5096114;28;20633;-62
2021/03/07 07:49:44;;;;;;;6.07;3.92;;;;;;;;;;5094539;28;20695;-62
2021/03/07 07:52:30;;;;;;;3.42;3.13;;;;;;;;;;5094531;28;20201;-61
2021/03/07 07:54:58;;;;;;;4.55;4.15;;;;;;;;;;5094092;28;20277;-61
2021/03/07 07:57:47;;;;;;;4.50;3.28;;;;;;;;;;5093913;28;20193;-61
2021/03/07 08:00:16;;;;;;;5.72;4.22;;;;;;;;;;5093735;28;20645;-60
2021/03/07 08:03:03;;;;;;;3.83;3.38;;;;;;;;;;5093900;28;20680;-61
2021/03/07 08:05:46;;;;;;;5.55;3.10;;;;;;;;;;5088917;28;20200;-62
2021/03/07 08:08:14;;;;;;;6.05;3.40;;;;;;;;;;5093543;28;20559;-60
2021/03/07 08:10:42;;;;;;;3.45;2.80;;;;;;;;;;5093933;28;20205;-60
2021/03/07 08:13:10;;;;;;;4.10;3.05;;;;;;;;;;5094120;28;20231;-61
2021/03/07 08:15:57;;;;;;;3.25;2.95;;;;;;;;;;5094496;28;20251;-62
2021/03/07 08:18:44;;;;;;;4.90;3.63;;;;;;;;;;5094477;28;20181;-60
2021/03/07 08:21:12;;;;;;;2.70;2.50;;;;;;;;;;5094772;28;20648;-61
2021/03/07 08:23:55;;;;;;;3.03;2.42;;;;;;;;;;5093567;28;20780;-62
2021/03/07 08:26:22;;;;;;;3.10;2.80;;;;;;;;;;5093842;28;20246;-62
2021/03/07 08:28:49;;;;;;;9.90;3.65;;;;;;;;;;5093931;28;20197;-61
2021/03/07 08:31:35;;;;;;;3.40;2.65;;;;;;;;;;5094197;28;20211;-61
2021/03/07 08:34:20;;;;;;;3.33;3.00;;;;;;;;;;5094211;28;20723;-61
2021/03/07 08:36:58;;;;;;;4.45;3.42;;;;;;;;;;5093252;28;20679;-61
2021/03/07 08:39:25;;;;;;;5.80;3.88;;;;;;;;;;5094424;28;20204;-60
2021/03/07 08:42:09;;;;;;;6.47;3.45;;;;;;;;;;5093490;28;20208;-61
2021/03/07 08:44:37;;;;;;;6.82;4.03;;;;;;;;;;5093387;28;20220;-60
2021/03/07 08:47:04;;;;;;;4.82;2.75;;;;;;;;;;5093327;28;20556;-62
2021/03/07 08:49:32;;;;;;;4.70;3.40;;;;;;;;;;5094463;28;20291;-61
2021/03/07 08:52:01;;;;;;;4.85;3.10;;;;;;;;;;5093350;28;20201;-61
2021/03/07 08:54:30;;;;;;;5.32;3.10;;;;;;;;;;5096926;28;20250;-61
2021/03/07 08:56:57;;;;;;;7.03;3.35;;;;;;;;;;5097311;28;20247;-61
2021/03/07 08:59:27;;;;;;;3.03;2.70;;;;;;;;;;5097522;28;20201;-60
2021/03/07 09:01:54;;;;;;;3.03;2.72;;;;;;;;;;5096890;28;20524;-62
2021/03/07 09:04:21;;;;;;;4.30;3.00;;;;;;;;;;5097297;28;20434;-61
2021/03/07 09:06:48;;;;;;;4.63;2.80;;;;;;;;;;5096787;28;20227;-61
2021/03/07 09:09:17;;;;;;;3.85;2.90;;;;;;;;;;5097488;28;20207;-61
2021/03/07 09:11:48;;;;;;;4.68;3.20;;;;;;;;;;5099978;28;20204;-62
2021/03/07 09:14:15;;;;;;;3.53;2.63;;;;;;;;;;5098495;28;20730;-62
2021/03/07 09:16:42;;;;;;;6.22;3.10;;;;;;;;;;5098117;28;20295;-60
2021/03/07 09:19:19;;;;;;;4.93;3.28;;;;;;;;;;5098552;28;20564;-60
2021/03/07 09:21:46;;;;;;;2.90;2.65;;;;;;;;;;5098146;28;20204;-62
2021/03/07 09:24:13;;;;;;;5.32;2.67;;;;;;;;;;5098217;28;20588;-62
2021/03/07 09:26:41;;;;;;;5.30;3.20;;;;;;;;;;5097324;28;20216;-63
2021/03/07 09:29:07;;;;;;;3.28;2.95;;;;;;;;;;5097842;28;20204;-61
2021/03/07 09:31:35;;;;;;;3.13;2.35;;;;;;;;;;5099928;28;20204;-64
2021/03/07 09:34:03;;;;;;;3.28;2.65;;;;;;;;;;5098548;28;20227;-63
2021/03/07 09:36:31;;;;;;;2.50;2.30;;;;;;;;;;5108795;28;20180;-64
2021/03/07 09:38:59;;;;;;;4.18;2.53;;;;;;;;;;5109623;28;20685;-64
2021/03/07 09:41:30;;;;;;;2.97;2.33;;;;;;;;;;5100871;28;20668;-63
2021/03/07 09:43:59;;;;;;;4.18;2.90;;;;;;;;;;5106581;28;20224;-63
2021/03/07 09:46:26;;;;;;;2.53;2.33;;;;;;;;;;5109092;28;20246;-63
2021/03/07 09:48:58;;;;;;;2.65;2.13;;;;;;;;;;5113595;28;20208;-64
2021/03/07 09:51:28;;;;;;;9.20;2.53;;;;;;;;;;5113838;28;20200;-64
2021/03/07 09:53:54;;;;;;;5.88;2.95;;;;;;;;;;5109522;28;20676;-63
2021/03/07 09:56:23;;;;;;;2.78;1.50;;;;;;;;;;5109552;28;20627;-63
2021/03/07 09:58:49;;;;;;;4.05;2.70;;;;;;;;;;5109894;28;20207;-64
2021/03/07 10:01:17;;;;;;;4.05;2.33;;;;;;;;;;5109807;28;20204;-63
2021/03/07 10:03:44;;;;;;;4.88;2.70;;;;;;;;;;5108768;28;20323;-63
2021/03/07 10:06:12;;;;;;;5.00;2.60;;;;;;;;;;5108541;28;20213;-64
2021/03/07 10:08:39;;;;;;;3.17;2.05;;;;;;;;;;5109767;28;20201;-63
2021/03/07 10:11:10;;;;;;;3.90;2.40;;;;;;;;;;5112637;28;20281;-63
2021/03/07 10:13:37;;;;;;;2.40;1.90;;;;;;;;;;5111852;28;20232;-63
2021/03/07 10:16:05;;;;;;;4.60;1.70;;;;;;;;;;5108676;28;20196;-64
2021/03/07 10:18:33;;;;;;;5.60;2.25;;;;;;;;;;5110084;28;20268;-63
2021/03/07 10:21:01;;;;;;;2.53;2.17;;;;;;;;;;5111016;28;20212;-63
2021/03/07 10:23:28;;;;;;;2.60;2.10;;;;;;;;;;5109942;28;20232;-64
2021/03/07 10:25:55;;;;;;;2.67;2.20;;;;;;;;;;5108726;28;20200;-63
2021/03/07 10:28:22;;;;;;;2.63;2.40;;;;;;;;;;5112021;28;20225;-63
2021/03/07 10:30:50;;;;;;;2.92;2.63;;;;;;;;;;5105187;28;20196;-63
2021/03/07 10:33:18;;;;;;;4.57;2.70;;;;;;;;;;5105486;28;20251;-64
2021/03/07 10:36:06;;;;;;;4.10;2.33;;;;;;;;;;5101825;28;20208;-63
2021/03/07 10:38:33;;;;;;;3.30;2.15;;;;;;;;;;5099696;28;20296;-64
2021/03/07 10:41:00;;;;;;;3.25;2.30;;;;;;;;;;5100522;28;20229;-63
2021/03/07 10:43:27;;;;;;;4.22;2.03;;;;;;;;;;5100649;28;20630;-63
2021/03/07 10:45:54;;;;;;;4.50;2.20;;;;;;;;;;5099099;28;20253;-64
2021/03/07 10:48:20;;;;;;;2.30;2.10;;;;;;;;;;5100562;28;20220;-64
2021/03/07 10:50:48;;;;;;;2.40;2.20;;;;;;;;;;5104026;28;20200;-63
2021/03/07 10:53:17;;;;;;;4.93;2.80;;;;;;;;;;5104810;28;20227;-64
2021/03/07 10:55:50;;;;;;;2.67;2.20;;;;;;;;;;5103789;28;20197;-64
2021/03/07 10:58:16;;;;;;;2.75;2.25;;;;;;;;;;5103477;28;20211;-63
2021/03/07 11:00:43;;;;;;;7.63;2.50;;;;;;;;;;5105162;28;20672;-62
2021/03/07 11:03:10;;;;;;;2.70;2.47;;;;;;;;;;5101662;28;20227;-63
2021/03/07 11:05:37;;;;;;;4.15;2.65;;;;;;;;;;5099997;28;20673;-62
2021/03/07 11:08:04;;;;;;;3.95;2.55;;;;;;;;;;5099544;28;20582;-64
2021/03/07 11:10:31;;;;;;;5.07;2.70;;;;;;;;;;5099229;28;20204;-63
2021/03/07 11:12:58;;;;;;;4.55;2.47;;;;;;;;;;5098758;28;20241;-62
2021/03/07 11:15:25;;;;;;;3.78;2.47;;;;;;;;;;5098483;28;20261;-63
2021/03/07 11:17:52;;;;;;;5.80;3.17;;;;;;;;;;5099325;28;20200;-64
2021/03/07 11:20:18;;;;;;;3.08;2.58;;;;;;;;;;5097434;28;20204;-63
2021/03/07 11:22:45;;;;;;;5.78;2.90;;;;;;;;;;5097206;28;20521;-63
2021/03/07 11:25:12;;;;;;;3.88;2.95;;;;;;;;;;5096419;28;20772;-64
2021/03/07 11:27:40;;;;;;;3.95;3.30;;;;;;;;;;5096766;28;20220;-64
2021/03/07 11:30:08;;;;;;;3.30;2.58;;;;;;;;;;5095847;28;20223;-65
2021/03/07 11:32:34;;;;;;;3.50;3.20;;;;;;;;;;5095385;28;20207;-64
2021/03/07 11:35:01;;;;;;;3.47;3.10;;;;;;;;;;5098811;28;20220;-64
2021/03/07 11:37:28;;;;;;;3.90;3.60;;;;;;;;;;5098541;28;20201;-64
2021/03/07 11:39:55;;;;;;;3.20;2.90;;;;;;;;;;5098802;28;20200;-64
2021/03/07 11:42:22;;;;;;;5.38;3.05;;;;;;;;;;5100105;28;20200;-62
2021/03/07 11:44:49;;;;;;;5.60;3.17;;;;;;;;;;5095832;28;20227;-63
2021/03/07 11:47:16;;;;;;;5.65;3.38;;;;;;;;;;5095851;28;20273;-63
2021/03/07 11:49:43;;;;;;;4.75;2.90;;;;;;;;;;5095860;28;20204;-64
2021/03/07 11:52:10;;;;;;;4.22;3.45;;;;;;;;;;5095586;28;20204;-63
2021/03/07 11:54:37;;;;;;;4.25;3.40;;;;;;;;;;5096906;28;20223;-64
2021/03/07 11:57:04;;;;;;;3.70;3.38;;;;;;;;;;5098560;28;20207;-63
2021/03/07 11:59:31;;;;;;;3.72;3.38;;;;;;;;;;5101534;28;20206;-64
2021/03/07 12:01:59;;;;;;;7.38;3.72;;;;;;;;;;5104885;28;20200;-63
2021/03/07 12:04:26;;;;;;;5.22;3.10;;;;;;;;;;5108027;28;20243;-63
2021/03/07 12:06:52;;;;;;;4.57;3.70;;;;;;;;;;5106507;28;20231;-63
2021/03/07 12:09:19;;;;;;;5.13;3.38;;;;;;;;;;5105323;28;20196;-64
2021/03/07 12:11:46;;;;;;;3.50;3.00;;;;;;;;;;5106325;28;20230;-62
2021/03/07 12:14:13;;;;;;;4.43;3.97;;;;;;;;;;5104543;28;20220;-65
2021/03/07 12:16:39;;;;;;;6.65;4.57;;;;;;;;;;5103700;28;20211;-63
2021/03/07 12:19:07;;;;;;;4.95;4.25;;;;;;;;;;5101544;28;20196;-64
2021/03/07 12:21:34;;;;;;;5.50;4.95;;;;;;;;;;5103679;28;20197;-63
2021/03/07 12:24:01;;;;;;;5.45;4.50;;;;;;;;;;5103311;28;20224;-63
2021/03/07 12:26:27;;;;;;;7.75;4.85;;;;;;;;;;5100635;28;20201;-63
2021/03/07 12:28:54;;;;;;;5.78;5.18;;;;;;;;;;5101777;28;20231;-64
2021/03/07 12:31:21;;;;;;;5.97;5.30;;;;;;;;;;5103149;28;20230;-63
2021/03/07 12:33:48;;;;;;;8.70;5.45;;;;;;;;;;5105417;28;20223;-63
2021/03/07 12:36:15;;;;;;;5.43;4.93;;;;;;;;;;5105611;28;20196;-64
2021/03/07 12:38:42;;;;;;;5.22;4.72;;;;;;;;;;5108389;28;20207;-65
2021/03/07 12:41:09;;;;;;;9.10;4.28;;;;;;;;;;5105507;28;20219;-65
2021/03/07 12:43:36;;;;;;;6.30;4.35;;;;;;;;;;5103515;28;20227;-62
2021/03/07 12:46:02;;;;;;;5.63;4.70;;;;;;;;;;5102682;28;20200;-63
2021/03/07 12:48:29;;;;;;;7.13;4.90;;;;;;;;;;5102458;28;20221;-62
2021/03/07 12:50:56;;;;;;;5.25;4.47;;;;;;;;;;5101736;28;20200;-62
2021/03/07 12:53:24;;;;;;;4.40;3.90;;;;;;;;;;5101605;28;20277;-63
2021/03/07 12:55:50;;;;;;;4.75;4.22;;;;;;;;;;5100815;28;20204;-63
2021/03/07 12:58:17;;;;;;;6.50;4.32;;;;;;;;;;5100991;28;20200;-62
2021/03/07 13:00:44;;;;;;;4.55;4.15;;;;;;;;;;5101138;28;20207;-63
2021/03/07 13:03:11;;;;;;;5.38;4.80;;;;;;;;;;5101100;28;20224;-62
2021/03/07 13:05:37;;;;;;;5.00;4.50;;;;;;;;;;5097646;28;20301;-62
2021/03/07 13:08:04;;;;;;;6.40;5.57;;;;;;;;;;5097276;28;20257;-64
2021/03/07 13:10:32;;;;;;;7.40;5.10;;;;;;;;;;5097032;28;20197;-61
2021/03/07 13:12:59;;;;;;;5.72;4.28;;;;;;;;;;5097216;28;20200;-63
2021/03/07 13:15:26;;;;;;;6.20;4.72;;;;;;;;;;5096650;28;20272;-62
2021/03/07 13:17:53;;;;;;;7.15;5.05;;;;;;;;;;5096975;28;20242;-62
2021/03/07 13:20:22;;;;;;;5.75;4.70;;;;;;;;;;5096983;28;20203;-63
2021/03/07 13:22:49;;;;;;;5.60;4.50;;;;;;;;;;5096407;28;20202;-62
2021/03/07 13:25:16;;;;;;;5.70;5.15;;;;;;;;;;5097339;28;20196;-62
2021/03/07 13:27:43;;;;;;;8.95;4.70;;;;;;;;;;5096967;28;20227;-62
2021/03/07 13:30:11;;;;;;;5.70;4.18;;;;;;;;;;5096935;28;20204;-62
2021/03/07 13:32:38;;;;;;;6.00;4.93;;;;;;;;;;5096481;28;20676;-62
2021/03/07 13:35:05;;;;;;;7.80;5.20;;;;;;;;;;5096529;28;20224;-62
2021/03/07 13:37:32;;;;;;;7.00;4.30;;;;;;;;;;5097005;28;20226;-62
2021/03/07 13:39:58;;;;;;;6.50;4.53;;;;;;;;;;5096060;28;20200;-61
2021/03/07 13:42:25;;;;;;;5.10;4.60;;;;;;;;;;5098340;28;20269;-62
2021/03/07 13:44:53;;;;;;;5.80;4.30;;;;;;;;;;5097161;28;20649;-61
2021/03/07 13:47:19;;;;;;;6.13;4.93;;;;;;;;;;5097885;28;20340;-63
2021/03/07 13:49:46;;;;;;;5.00;4.60;;;;;;;;;;5097318;28;20212;-63
2021/03/07 13:52:13;;;;;;;5.55;5.05;;;;;;;;;;5100350;28;20197;-62
2021/03/07 13:54:40;;;;;;;7.10;4.70;;;;;;;;;;5105272;28;20224;-63
2021/03/07 13:57:06;;;;;;;8.50;5.97;;;;;;;;;;5097233;28;20196;-62
2021/03/07 13:59:33;;;;;;;4.80;4.32;;;;;;;;;;5095962;28;20196;-63
2021/03/07 14:02:01;;;;;;;7.50;5.05;;;;;;;;;;5095933;28;20428;-64
2021/03/07 14:04:27;;;;;;;5.13;4.63;;;;;;;;;;5096185;28;20227;-64
2021/03/07 14:06:56;;;;;;;6.68;4.50;;;;;;;;;;5096495;28;20269;-63
2021/03/07 14:09:23;;;;;;;7.57;5.25;;;;;;;;;;5096957;28;20227;-62
2021/03/07 14:11:49;;;;;;;6.57;5.20;;;;;;;;;;5100267;28;20673;-63
2021/03/07 14:14:16;;;;;;;6.00;5.40;;;;;;;;;;5098702;28;20216;-64
2021/03/07 14:16:43;;;;;;;7.75;5.63;;;;;;;;;;5099276;28;20432;-62
2021/03/07 14:19:11;;;;;;;7.07;4.90;;;;;;;;;;5100359;28;20230;-63
2021/03/07 14:21:37;;;;;;;7.70;5.28;;;;;;;;;;5103815;28;20220;-64
2021/03/07 14:24:04;;;;;;;9.02;5.68;;;;;;;;;;5098309;28;20220;-64
2021/03/07 14:26:31;;;;;;;6.95;5.38;;;;;;;;;;5100670;28;20200;-62
2021/03/07 14:28:58;;;;;;;5.93;5.35;;;;;;;;;;5103069;28;20208;-64
2021/03/07 14:31:25;;;;;;;6.78;6.07;;;;;;;;;;5101349;28;20200;-61
2021/03/07 14:33:51;;;;;;;6.82;6.13;;;;;;;;;;5101154;28;20220;-62
2021/03/07 14:36:19;;;;;;;7.95;5.78;;;;;;;;;;5104008;28;20196;-61
2021/03/07 14:38:46;;;;;;;9.65;6.50;;;;;;;;;;5106113;28;20196;-62
2021/03/07 14:41:13;;;;;;;7.68;5.95;;;;;;;;;;5103837;28;20269;-63
2021/03/07 14:43:40;;;;;;;6.60;5.20;;;;;;;;;;5104625;28;20262;-62
2021/03/07 14:46:07;;;;;;;7.93;6.05;;;;;;;;;;5102059;28;20658;-61
2021/03/07 14:48:33;;;;;;;6.50;5.32;;;;;;;;;;5099313;28;20589;-62